Open Full Screen Window  High Contrast Mode
Wind Gusting 00 knots
04
October 31, 2014 9:15 AM EDT
Present Weather: Drizzle
Weather Information
Wind Direction
  320 °
Wind Speed
  04 kt (5 mph)
Wind Gust
  00 kt (0 mph)
Altimeter
29.91 in
Visibility
5 SM
Temperature
05° C
41° F
Dewpoint
05° C
41° F
Humidity
100%
1hr Rain Fall
00.00 in.
24hr Rain Fall
00.03 in.
Sky Condition
Overcast @ 1,500 ft
MVFR

METAR KIKW 311315Z AUTO 32004KT 5SM DZ OVC015 05/05 A2991 RMK AO2 T00510048

*Background is not an actual portrayal of the airport.